createdAt,value
2019-05-16T00:01:38.146Z,65
2019-05-16T00:07:03.524Z,65
2019-05-16T00:12:31.644Z,65
2019-05-16T00:17:58.837Z,65
2019-05-16T00:23:28.825Z,66
2019-05-16T00:28:53.897Z,67
2019-05-16T00:34:22.215Z,67
2019-05-16T00:39:49.401Z,67
2019-05-16T00:45:18.478Z,67
2019-05-16T00:50:44.420Z,67
2019-05-16T00:56:11.669Z,67
2019-05-16T01:01:39.584Z,67
2019-05-16T01:07:08.145Z,68
2019-05-16T01:12:34.826Z,69
2019-05-16T01:18:01.946Z,70
2019-05-16T01:23:30.437Z,71
2019-05-16T01:28:58.214Z,72
2019-05-16T01:34:25.221Z,73
2019-05-16T01:39:53.298Z,73
2019-05-16T01:45:20.724Z,73
2019-05-16T01:50:48.726Z,73
2019-05-16T01:56:17.904Z,73
2019-05-16T02:01:44.165Z,74
2019-05-16T02:07:11.069Z,74
2019-05-16T02:12:38.566Z,74
2019-05-16T02:18:05.214Z,74
2019-05-16T02:23:33.298Z,75
2019-05-16T02:29:00.917Z,75
2019-05-16T02:34:30.591Z,75
2019-05-16T02:39:55.689Z,76
2019-05-16T02:45:24.451Z,76
2019-05-16T02:50:51.160Z,77
2019-05-16T02:56:20.914Z,77
2019-05-16T03:01:45.095Z,77
2019-05-16T03:07:30.207Z,77
2019-05-16T03:12:41.089Z,77
2019-05-16T03:18:11.209Z,78
2019-05-16T03:23:35.565Z,78
2019-05-16T03:29:02.612Z,79
2019-05-16T03:34:43.281Z,78
2019-05-16T03:39:56.842Z,78
2019-05-16T03:45:24.934Z,78
2019-05-16T03:50:52.084Z,77
2019-05-16T03:56:21.752Z,77
2019-05-16T04:01:47.224Z,77
2019-05-16T04:07:14.320Z,76
2019-05-16T04:18:11.104Z,77
2019-05-16T04:23:36.831Z,77
2019-05-16T04:29:05.006Z,78
2019-05-16T04:34:33.123Z,78
2019-05-16T04:40:01.179Z,79
2019-05-16T04:45:27.319Z,79
2019-05-16T04:50:54.468Z,79
2019-05-16T04:56:22.846Z,80
2019-05-16T05:01:51.069Z,80
2019-05-16T05:07:19.872Z,79
2019-05-16T05:12:44.256Z,80
2019-05-16T05:18:12.762Z,79
2019-05-16T05:23:40.640Z,79
2019-05-16T05:40:02.568Z,78
2019-05-16T05:45:30.709Z,78
2019-05-16T05:51:00.046Z,79
2019-05-16T05:56:25.045Z,79
2019-05-16T06:01:53.472Z,79
2019-05-16T06:07:20.694Z,80
2019-05-16T06:12:50.015Z,79
2019-05-16T06:18:16.079Z,79
2019-05-16T06:23:44.253Z,78
2019-05-16T06:29:11.750Z,78
2019-05-16T06:34:40.373Z,78
2019-05-16T06:40:08.173Z,78
2019-05-16T06:45:36.469Z,78
2019-05-16T06:51:05.111Z,77
2019-05-16T06:56:36.229Z,76
2019-05-16T07:02:00.388Z,75
2019-05-16T07:07:26.681Z,75
2019-05-16T07:12:54.083Z,69
2019-05-16T07:18:21.889Z,68
2019-05-16T07:23:51.047Z,68
2019-05-16T07:29:16.124Z,68
2019-05-16T07:34:44.366Z,66
2019-05-16T07:40:22.565Z,64
2019-05-16T07:45:41.446Z,64
2019-05-16T07:51:10.271Z,61
2019-05-16T07:56:36.950Z,58
2019-05-16T08:02:05.702Z,57
2019-05-16T08:07:33.454Z,55
2019-05-16T08:13:03.266Z,56
2019-05-16T08:18:30.176Z,55
2019-05-16T08:23:56.977Z,55
2019-05-16T08:29:24.337Z,57
2019-05-16T08:34:52.695Z,58
2019-05-16T08:40:21.428Z,61
2019-05-16T08:45:51.470Z,63
2019-05-16T08:51:15.987Z,62
2019-05-16T08:56:44.335Z,65
2019-05-16T09:07:37.942Z,63
2019-05-16T09:10:34.042Z,64
2019-05-16T09:13:07.193Z,60
2019-05-16T09:18:40.536Z,58
2019-05-16T09:24:01.279Z,55
2019-05-16T09:29:28.791Z,54
2019-05-16T09:34:57.196Z,54
2019-05-16T09:40:27.451Z,54
2019-05-16T09:45:57.413Z,54
2019-05-16T09:51:21.877Z,54
2019-05-16T10:24:14.158Z,53
2019-05-16T10:35:05.523Z,54
2019-05-16T10:40:36.639Z,53
2019-05-16T10:46:02.974Z,53
2019-05-16T10:51:29.948Z,51
2019-05-16T10:56:57.920Z,52
2019-05-16T11:07:57.029Z,51
2019-05-16T11:13:21.478Z,53
2019-05-16T11:18:50.155Z,54
2019-05-16T11:24:17.732Z,54
2019-05-16T11:29:47.255Z,53
2019-05-16T11:35:17.108Z,55
2019-05-16T11:40:43.818Z,55
2019-05-16T11:46:12.399Z,54
2019-05-16T11:51:42.499Z,55
2019-05-16T11:57:09.747Z,55
2019-05-16T12:02:42.316Z,54
2019-05-16T12:08:37.181Z,51
2019-05-16T12:13:36.635Z,53
2019-05-16T12:19:02.689Z,53
2019-05-16T12:24:41.250Z,53
2019-05-16T12:29:58.940Z,53
2019-05-16T12:35:27.673Z,52
2019-05-16T12:40:53.724Z,52
2019-05-16T12:46:22.674Z,51
2019-05-16T12:51:51.317Z,54
2019-05-16T12:57:19.702Z,53
2019-05-16T13:02:57.483Z,51
2019-05-16T13:13:59.345Z,51
2019-05-16T13:19:11.433Z,52
2019-05-16T13:24:40.334Z,53
2019-05-16T13:30:07.610Z,51
2019-05-16T13:35:36.948Z,53
2019-05-16T13:41:06.903Z,52
2019-05-16T13:46:32.888Z,52
2019-05-16T13:52:01.718Z,51
2019-05-16T13:57:30.674Z,52
2019-05-16T14:02:59.685Z,51
2019-05-16T14:08:29.114Z,51
2019-05-16T14:13:56.490Z,51
2019-05-16T14:19:24.146Z,52
2019-05-16T14:24:52.261Z,52
2019-05-16T14:30:20.895Z,53
2019-05-16T14:35:49.761Z,52
2019-05-16T14:41:17.701Z,52
2019-05-16T14:46:47.443Z,53
2019-05-16T14:52:15.120Z,53
2019-05-16T14:57:43.952Z,53
2019-05-16T15:03:11.823Z,53
2019-05-16T15:08:41.262Z,54
2019-05-16T15:14:08.538Z,54
2019-05-16T15:19:36.328Z,55
2019-05-16T15:25:04.659Z,54
2019-05-16T15:30:32.056Z,56
2019-05-16T15:35:59.855Z,54
2019-05-16T15:41:27.942Z,54
2019-05-16T15:46:59.818Z,54
2019-05-16T15:52:27.241Z,52
2019-05-16T15:57:53.749Z,50
2019-05-16T16:03:21.355Z,50
2019-05-16T16:08:49.347Z,51
2019-05-16T16:14:18.401Z,49
2019-05-16T16:19:57.749Z,49
2019-05-16T16:25:17.506Z,50
2019-05-16T16:30:44.035Z,50
2019-05-16T16:36:11.831Z,51
2019-05-16T16:41:40.877Z,51
2019-05-16T16:47:09.583Z,51
2019-05-16T16:52:38.204Z,50
2019-05-16T16:58:09.106Z,51
2019-05-16T17:03:33.127Z,51
2019-05-16T17:09:02.588Z,51
2019-05-16T17:14:39.203Z,51
2019-05-16T17:19:58.631Z,51
2019-05-16T17:25:26.893Z,50
2019-05-16T17:30:56.468Z,50
2019-05-16T17:36:21.993Z,51
2019-05-16T17:41:54.708Z,50
2019-05-16T17:47:18.477Z,50
2019-05-16T17:52:47.867Z,51
2019-05-16T17:58:16.478Z,51
2019-05-16T18:03:44.802Z,51
2019-05-16T18:09:22.741Z,52
2019-05-16T18:14:42.193Z,51
2019-05-16T18:20:22.078Z,50
2019-05-16T18:25:38.601Z,50
2019-05-16T18:31:06.348Z,50
2019-05-16T18:36:35.056Z,50
2019-05-16T18:42:03.827Z,50
2019-05-16T18:47:31.417Z,50
2019-05-16T18:53:00.012Z,49
2019-05-16T18:58:28.728Z,48
2019-05-16T19:03:57.706Z,48
2019-05-16T19:09:26.783Z,47
2019-05-16T19:14:52.951Z,47
2019-05-16T19:20:21.428Z,48
2019-05-16T19:25:50.439Z,48
2019-05-16T19:31:18.611Z,48
2019-05-16T19:36:47.265Z,48
2019-05-16T19:42:16.953Z,49
2019-05-16T19:47:43.557Z,48
2019-05-16T19:53:11.279Z,48
2019-05-16T19:58:38.929Z,48
2019-05-16T20:04:06.653Z,49
2019-05-16T20:09:36.211Z,49
2019-05-16T20:15:07.824Z,48
2019-05-16T20:20:31.462Z,49
2019-05-16T20:25:58.934Z,49
2019-05-16T20:31:27.228Z,49
2019-05-16T20:36:57.134Z,49
2019-05-16T20:42:23.882Z,49
2019-05-16T20:48:03.693Z,49
2019-05-16T20:53:19.101Z,50
2019-05-16T20:58:48.604Z,49
2019-05-16T21:04:14.296Z,50
2019-05-16T21:09:43.492Z,50
2019-05-16T21:15:10.415Z,51
2019-05-16T21:20:38.879Z,50
2019-05-16T21:26:05.298Z,51
2019-05-16T21:31:33.614Z,51
2019-05-16T21:37:11.137Z,50
2019-05-16T21:42:28.908Z,50
2019-05-16T21:47:56.875Z,51
2019-05-16T21:53:27.140Z,51
2019-05-16T21:58:52.441Z,51
2019-05-16T22:04:19.949Z,52
2019-05-16T22:09:47.511Z,52
2019-05-16T22:15:17.022Z,52
2019-05-16T22:20:43.553Z,53
2019-05-16T22:26:11.173Z,53
2019-05-16T22:31:39.567Z,53
2019-05-16T22:37:08.046Z,53
2019-05-16T22:42:37.415Z,53
2019-05-16T22:48:03.117Z,53
2019-05-16T22:53:31.727Z,54
2019-05-16T22:58:59.989Z,54
2019-05-16T23:04:28.007Z,55
2019-05-16T23:09:56.367Z,55
2019-05-16T23:15:22.445Z,56
2019-05-16T23:20:49.991Z,57
2019-05-16T23:26:18.373Z,58
2019-05-16T23:31:47.266Z,59
2019-05-16T23:37:15.282Z,60
2019-05-16T23:42:43.762Z,62
2019-05-16T23:48:12.243Z,61
2019-05-16T23:53:40.670Z,62
2019-05-16T23:59:07.997Z,61
